Time;durP1;ratioP1;P1;durP2;ratioP2;P2;SDS_P1;SDS_P2;PMS_P1;PMS_P2;Temp;Humidity;BMP_temperature;BMP_pressure;BME280_temperature;BME280_humidity;BME280_pressure;Samples;Min_cycle;Max_cycle;Signal;HPM_P1;HPM_P2
2021/10/26 00:00:53;;;;;;;3.50;1.85;;;;;;;6.87;49.39;100490.78;3392306;29;20048;-71
2021/10/26 00:02:35;;;;;;;3.95;1.60;;;;;;;6.86;49.53;100504.19;3393092;29;20046;-71
2021/10/26 00:04:20;;;;;;;2.78;1.83;;;;;;;6.83;49.58;100494.72;3392531;29;20056;-71
2021/10/26 00:06:01;;;;;;;;;;;;;;;6.92;49.10;100485.88;3396079;29;20146;-71
2021/10/26 00:07:42;;;;;;;2.00;1.48;;;;;;;6.83;49.31;100489.41;3389253;29;19966;-70
2021/10/26 00:09:23;;;;;;;3.22;1.90;;;;;;;6.78;49.57;100486.38;3389798;29;20044;-72
2021/10/26 00:11:05;;;;;;;5.03;2.17;;;;;;;6.76;49.95;100491.84;3388848;29;20044;-71
2021/10/26 00:12:45;;;;;;;7.40;1.63;;;;;;;6.75;49.72;100476.09;3388527;29;20048;-70
2021/10/26 00:14:26;;;;;;;3.03;1.65;;;;;;;6.77;49.92;100487.38;3389054;29;20503;-71
2021/10/26 00:16:09;;;;;;;4.32;2.00;;;;;;;6.76;49.92;100483.03;3389442;29;20058;-71
2021/10/26 00:17:50;;;;;;;2.20;1.67;;;;;;;6.76;49.99;100488.34;3389320;29;20040;-71
2021/10/26 00:19:30;;;;;;;1.77;1.48;;;;;;;6.73;50.04;100480.69;3389800;29;20036;-70
2021/10/26 00:21:12;;;;;;;2.27;2.00;;;;;;;6.72;50.09;100477.22;3388044;29;20515;-70
2021/10/26 00:22:53;;;;;;;3.15;1.73;;;;;;;6.71;50.24;100490.59;3389282;29;20303;-70
2021/10/26 00:24:33;;;;;;;2.10;1.35;;;;;;;6.69;50.23;100484.66;3388965;29;20456;-71
2021/10/26 00:26:14;;;;;;;4.40;1.83;;;;;;;6.64;50.36;100469.19;3389693;29;20068;-73
2021/10/26 00:27:56;;;;;;;3.03;2.03;;;;;;;6.64;50.46;100478.97;3389035;29;20415;-71
2021/10/26 00:29:38;;;;;;;2.45;1.70;;;;;;;6.62;50.44;100468.50;3376354;29;20040;-70
2021/10/26 00:31:19;;;;;;;2.40;1.92;;;;;;;6.61;50.52;100473.94;3400612;29;20042;-73
2021/10/26 00:33:00;;;;;;;5.05;1.80;;;;;;;6.59;50.74;100470.63;3391831;29;20043;-71
2021/10/26 00:34:41;;;;;;;2.90;2.28;;;;;;;6.58;50.81;100479.53;3389444;29;20531;-69
2021/10/26 00:36:22;;;;;;;4.13;1.58;;;;;;;6.54;51.00;100471.91;3401289;29;20044;-70
2021/10/26 00:38:03;;;;;;;3.42;2.00;;;;;;;6.56;51.02;100471.75;3388311;29;20056;-69
2021/10/26 00:39:44;;;;;;;4.88;1.92;;;;;;;6.57;51.08;100464.66;3389044;29;20111;-72
2021/10/26 00:41:26;;;;;;;2.72;1.98;;;;;;;6.55;51.25;100462.97;3387487;29;20060;-70
2021/10/26 00:43:07;;;;;;;4.15;2.33;;;;;;;6.55;51.21;100462.97;3372258;29;20108;-72
2021/10/26 00:44:49;;;;;;;3.38;2.00;;;;;;;6.57;51.22;100468.13;3386345;29;20568;-72
2021/10/26 00:46:31;;;;;;;3.40;1.83;;;;;;;6.57;51.23;100462.00;3400742;29;20468;-70
2021/10/26 00:48:12;;;;;;;2.35;1.83;;;;;;;6.59;51.28;100473.28;3390328;29;20067;-71
2021/10/26 00:49:54;;;;;;;6.03;2.03;;;;;;;6.58;51.15;100468.94;3387680;29;20055;-70
2021/10/26 00:51:36;;;;;;;1.92;1.60;;;;;;;6.56;51.45;100461.16;3398836;29;20130;-71
2021/10/26 00:53:18;;;;;;;3.20;2.33;;;;;;;6.54;51.36;100457.84;3387988;29;20048;-70
2021/10/26 00:55:00;;;;;;;2.60;1.70;;;;;;;6.57;51.40;100462.81;3388009;29;20040;-70
2021/10/26 00:56:41;;;;;;;4.22;1.58;;;;;;;6.58;51.47;100459.19;3388407;29;20513;-71
2021/10/26 00:58:22;;;;;;;3.35;2.10;;;;;;;6.59;51.58;100465.34;3388842;29;20095;-70
2021/10/26 01:00:06;;;;;;;2.38;1.50;;;;;;;6.58;51.45;100458.34;3400939;29;20040;-70
2021/10/26 01:01:47;;;;;;;3.92;2.13;;;;;;;6.58;51.70;100464.47;3385654;29;20480;-71
2021/10/26 01:03:28;;;;;;;2.92;2.55;;;;;;;6.58;51.54;100458.34;3372614;29;20078;-72
2021/10/26 01:05:12;;;;;;;1.80;1.70;;;;;;;6.57;51.68;100452.22;3383001;29;20083;-71
2021/10/26 01:06:55;;;;;;;4.32;1.52;;;;;;;6.53;51.72;100438.47;3385469;29;20058;-71
2021/10/26 01:08:38;;;;;;;2.72;1.60;;;;;;;6.53;51.80;100446.41;3372342;29;20516;-70
2021/10/26 01:10:19;;;;;;;3.40;1.90;;;;;;;6.55;51.75;100447.06;3396472;29;20054;-71
2021/10/26 01:12:01;;;;;;;3.63;1.88;;;;;;;6.53;51.82;100441.13;3387127;29;20051;-70
2021/10/26 01:13:44;;;;;;;4.85;2.05;;;;;;;6.55;51.75;100441.78;3361904;29;20049;-71
2021/10/26 01:15:25;;;;;;;3.55;2.53;;;;;;;6.55;52.03;100444.44;3383164;29;20048;-71
2021/10/26 01:17:10;;;;;;;2.00;1.75;;;;;;;6.53;52.11;100434.97;3374402;29;20148;-71
2021/10/26 01:18:52;;;;;;;4.72;2.55;;;;;;;6.57;52.02;100435.50;3385659;29;20052;-72
2021/10/26 01:20:33;;;;;;;3.00;1.80;;;;;;;6.56;51.79;100445.28;3382869;29;20044;-71
2021/10/26 01:22:16;;;;;;;3.33;1.67;;;;;;;6.55;51.99;100439.13;3388331;29;20111;-72
2021/10/26 01:23:57;;;;;;;2.50;1.88;;;;;;;6.53;51.87;100433.16;3387776;29;20048;-71
2021/10/26 01:25:38;;;;;;;2.75;1.80;;;;;;;6.51;51.92;100436.94;3385057;29;20083;-71
2021/10/26 01:27:20;;;;;;;2.03;1.83;;;;;;;6.52;51.89;100428.84;3372288;29;20417;-70
2021/10/26 01:29:04;;;;;;;3.65;2.08;;;;;;;6.53;51.78;100437.63;3370166;29;20044;-71
2021/10/26 01:30:49;;;;;;;4.05;2.22;;;;;;;6.52;52.14;100428.84;3383861;29;20116;-72
2021/10/26 01:32:49;;;;;;;3.47;2.13;;;;;;;6.51;52.16;100429.84;3385577;29;20048;-71
2021/10/26 01:34:52;;;;;;;1.83;1.70;;;;;;;6.50;52.34;100425.50;3400725;29;20106;-71
2021/10/26 01:36:33;;;;;;;3.00;1.92;;;;;;;6.52;51.97;100422.72;3387147;29;20044;-71
2021/10/26 01:38:14;;;;;;;5.40;2.33;;;;;;;6.52;51.97;100420.06;3398133;29;20148;-71
2021/10/26 01:39:55;;;;;;;3.90;2.17;;;;;;;6.54;51.93;100424.22;3387161;29;20131;-71
2021/10/26 01:41:36;;;;;;;3.33;2.33;;;;;;;6.52;52.15;100418.25;3384836;29;20496;-72
2021/10/26 01:43:17;;;;;;;3.03;2.65;;;;;;;6.52;52.14;100412.94;3384424;29;20048;-71
2021/10/26 01:44:58;;;;;;;6.47;2.50;;;;;;;6.56;52.20;100421.44;3372297;29;20059;-71
2021/10/26 01:46:42;;;;;;;3.63;2.22;;;;;;;6.52;52.20;100407.66;3383090;29;20112;-70
2021/10/26 01:48:27;;;;;;;3.15;2.20;;;;;;;6.52;52.23;100407.66;3363106;29;20540;-70
2021/10/26 01:50:11;;;;;;;2.17;1.65;;;;;;;6.51;52.40;100403.34;3372663;29;20041;-70
2021/10/26 01:51:52;;;;;;;4.78;2.50;;;;;;;6.47;52.40;100401.16;3371723;29;20099;-70
2021/10/26 01:53:33;;;;;;;2.47;1.98;;;;;;;6.48;52.28;100405.44;3371651;29;20449;-70
2021/10/26 01:55:18;;;;;;;3.83;2.25;;;;;;;6.45;52.38;100401.28;3372271;29;20084;-70
2021/10/26 01:57:06;;;;;;;3.25;2.22;;;;;;;6.45;52.50;100401.28;3371739;29;20516;-70
2021/10/26 01:59:00;;;;;;;3.38;2.55;;;;;;;6.45;52.29;100400.47;3387362;29;20138;-71
2021/10/26 02:01:07;;;;;;;6.25;2.33;;;;;;;6.46;52.49;100399.50;3386182;29;20059;-71
2021/10/26 02:02:50;;;;;;;2.95;2.20;;;;;;;6.42;52.44;100396.28;3386930;29;20134;-71
2021/10/26 02:04:31;;;;;;;2.42;2.20;;;;;;;6.38;52.44;100392.31;3374460;29;20155;-71
2021/10/26 02:06:11;;;;;;;2.95;2.10;;;;;;;6.39;52.59;100391.31;3384642;29;20056;-69
2021/10/26 02:07:52;;;;;;;3.35;2.10;;;;;;;6.38;52.59;100400.25;3374526;29;20048;-70
2021/10/26 02:09:33;;;;;;;2.58;2.13;;;;;;;6.37;52.71;100395.91;3374569;29;20044;-71
2021/10/26 02:11:14;;;;;;;5.68;2.47;;;;;;;6.36;52.74;100391.63;3387416;29;20138;-72
2021/10/26 02:12:56;;;;;;;2.83;1.88;;;;;;;6.35;52.64;100395.25;3377829;29;20454;-71
2021/10/26 02:14:37;;;;;;;4.32;2.00;;;;;;;6.34;52.67;100388.28;3384252;29;20135;-70
2021/10/26 02:16:19;;;;;;;3.58;2.60;;;;;;;6.34;52.54;100388.28;3371739;29;20143;-70
2021/10/26 02:18:01;;;;;;;4.85;2.05;;;;;;;6.32;52.75;100379.66;3385083;29;20146;-70
2021/10/26 02:19:42;;;;;;;3.67;2.20;;;;;;;6.32;52.80;100387.59;3384761;29;20085;-71
2021/10/26 02:21:22;;;;;;;6.70;2.90;;;;;;;6.31;52.80;100385.94;3384759;29;20131;-70
2021/10/26 02:23:03;;;;;;;3.53;3.05;;;;;;;6.31;52.85;100388.59;3388513;29;20048;-71
2021/10/26 02:24:44;;;;;;;5.13;2.50;;;;;;;6.29;52.77;100377.31;3390028;29;20146;-71
2021/10/26 02:26:25;;;;;;;2.13;1.90;;;;;;;6.25;52.83;100374.13;3390609;29;20144;-71
2021/10/26 02:28:06;;;;;;;4.93;2.30;;;;;;;6.27;52.92;100379.25;3389737;29;20492;-69
2021/10/26 02:29:47;;;;;;;4.65;2.28;;;;;;;6.25;52.93;100373.31;3400260;29;20396;-71
2021/10/26 02:31:28;;;;;;;3.50;2.30;;;;;;;6.23;52.94;100370.81;3389872;29;20051;-71
2021/10/26 02:33:10;;;;;;;4.82;2.10;;;;;;;6.19;53.08;100368.59;3386609;29;20555;-72
2021/10/26 02:34:52;;;;;;;4.78;2.22;;;;;;;6.17;53.06;100366.13;3374678;29;20100;-71
2021/10/26 02:36:33;;;;;;;6.10;2.28;;;;;;;6.15;53.04;100368.06;3373994;29;20505;-70
2021/10/26 02:38:14;;;;;;;3.50;2.10;;;;;;;6.17;53.00;100365.25;3376728;29;20047;-72
2021/10/26 02:39:56;;;;;;;4.82;2.22;;;;;;;6.16;52.96;100360.97;3374125;29;20423;-72
2021/10/26 02:41:37;;;;;;;3.03;2.03;;;;;;;6.15;52.94;100357.50;3381140;29;20048;-71
2021/10/26 02:43:18;;;;;;;6.68;2.30;;;;;;;6.15;53.05;100364.59;3400144;29;20047;-70
2021/10/26 02:44:59;;;;;;;2.53;2.03;;;;;;;6.14;53.18;100354.97;3389203;29;20094;-71
2021/10/26 02:46:40;;;;;;;4.50;2.47;;;;;;;6.10;53.21;100359.75;3399847;29;20044;-70
2021/10/26 02:48:21;;;;;;;4.78;2.42;;;;;;;6.09;53.16;100348.34;3389813;29;20479;-71
2021/10/26 02:50:01;;;;;;;5.30;2.78;;;;;;;6.08;53.23;100349.28;3399960;29;20422;-70
2021/10/26 02:51:43;;;;;;;;;;;;;;;6.20;52.83;100354.41;3390365;29;20047;-71
2021/10/26 02:53:24;;;;;;;4.68;2.13;;;;;;;6.12;53.08;100341.91;3390714;29;20310;-72
2021/10/26 02:55:06;;;;;;;3.70;1.95;;;;;;;6.09;53.18;100355.41;3389163;29;20051;-71
2021/10/26 02:56:47;;;;;;;3.70;1.88;;;;;;;6.07;53.34;100352.94;3377010;29;20048;-71
2021/10/26 02:58:27;;;;;;;3.25;2.05;;;;;;;6.03;53.36;100340.16;3387221;29;20106;-71
2021/10/26 03:00:12;;;;;;;3.42;2.58;;;;;;;6.04;53.30;100342.66;3379973;29;20041;-70
2021/10/26 03:01:53;;;;;;;4.88;2.83;;;;;;;6.02;53.39;100344.63;3376541;29;20041;-71
2021/10/26 03:03:35;;;;;;;6.30;2.60;;;;;;;6.02;53.53;100347.25;3373895;29;20500;-71
2021/10/26 03:05:16;;;;;;;6.38;2.60;;;;;;;6.00;53.43;100349.22;3383549;29;20036;-71
2021/10/26 03:06:57;;;;;;;5.65;2.50;;;;;;;5.98;53.54;100345.88;3389270;29;20059;-72
2021/10/26 03:08:38;;;;;;;6.50;2.85;;;;;;;5.96;53.45;100339.91;3386773;29;20048;-72
2021/10/26 03:10:22;;;;;;;4.95;2.15;;;;;;;5.99;53.61;100336.13;3385646;29;20412;-72
2021/10/26 03:12:03;;;;;;;5.80;2.58;;;;;;;5.97;53.63;100344.22;3399380;29;20047;-71
2021/10/26 03:13:45;;;;;;;4.47;2.40;;;;;;;5.97;53.57;100346.88;3389188;29;20067;-70
2021/10/26 03:15:27;;;;;;;3.58;2.42;;;;;;;5.94;53.61;100339.25;3385978;29;20040;-71
2021/10/26 03:17:15;;;;;;;3.80;2.60;;;;;;;5.96;53.70;100347.84;3376181;29;20420;-70
2021/10/26 03:19:11;;;;;;;4.13;2.25;;;;;;;5.94;53.52;100349.81;3375614;29;20100;-70
2021/10/26 03:20:57;;;;;;;6.85;2.22;;;;;;;5.92;53.60;100343.81;3386713;29;20047;-70
2021/10/26 03:22:38;;;;;;;5.28;2.63;;;;;;;5.92;53.69;100341.16;3386951;29;20595;-71
2021/10/26 03:24:19;;;;;;;4.68;2.58;;;;;;;5.90;53.64;100341.28;3386062;29;20044;-71
2021/10/26 03:26:01;;;;;;;4.53;3.05;;;;;;;5.92;53.67;100338.50;3375888;29;20528;-70
2021/10/26 03:27:41;;;;;;;4.07;2.15;;;;;;;5.90;53.66;100336.00;3376991;29;20041;-70
2021/10/26 03:29:26;;;;;;;5.03;2.58;;;;;;;5.88;53.87;100339.78;3377213;29;20060;-71
2021/10/26 03:31:07;;;;;;;5.07;2.22;;;;;;;5.89;53.77;100338.81;3376066;29;20036;-71
2021/10/26 03:33:16;;;;;;;4.20;2.80;;;;;;;5.88;53.66;100334.50;3375951;29;20052;-71
2021/10/26 03:35:10;;;;;;;3.85;2.33;;;;;;;5.89;53.69;100330.88;3384065;29;20051;-73
2021/10/26 03:36:53;;;;;;;5.15;3.42;;;;;;;5.84;53.91;100333.97;3388755;29;20667;-71
2021/10/26 03:38:35;;;;;;;5.40;3.10;;;;;;;5.87;53.90;100327.53;3385860;29;20044;-71
2021/10/26 03:40:16;;;;;;;4.07;2.28;;;;;;;5.83;53.78;100320.88;3389946;29;20456;-71
2021/10/26 03:41:58;;;;;;;4.43;2.58;;;;;;;5.85;53.68;100319.75;3375826;29;20440;-70
2021/10/26 03:43:39;;;;;;;5.57;2.63;;;;;;;5.85;53.79;100324.22;3396875;29;20044;-70
2021/10/26 03:45:20;;;;;;;5.00;3.17;;;;;;;5.82;53.77;100314.75;3388133;29;20139;-72
2021/10/26 03:47:01;;;;;;;5.03;2.53;;;;;;;5.83;53.82;100321.69;3398985;29;20479;-72
2021/10/26 03:48:43;;;;;;;7.00;3.53;;;;;;;5.84;53.87;100318.09;3392362;29;20099;-70
2021/10/26 03:50:25;;;;;;;9.07;2.72;;;;;;;5.86;53.80;100320.56;3388928;29;20547;-73
2021/10/26 03:52:06;;;;;;;5.00;2.92;;;;;;;5.86;53.92;100325.88;3388997;29;20064;-73
2021/10/26 03:53:47;;;;;;;5.10;3.00;;;;;;;5.85;53.93;100324.22;3399297;29;20563;-70
2021/10/26 03:55:28;;;;;;;4.40;2.70;;;;;;;5.88;53.80;100330.03;3387960;29;20083;-70
2021/10/26 03:57:12;;;;;;;5.22;2.63;;;;;;;5.86;54.03;100320.56;3386571;29;20051;-72
2021/10/26 03:58:53;;;;;;;6.22;2.92;;;;;;;5.89;53.87;100330.88;3386381;29;20413;-73
2021/10/26 04:00:35;;;;;;;5.90;3.22;;;;;;;5.87;53.83;100320.44;3399022;29;20088;-72
2021/10/26 04:02:27;;;;;;;6.88;3.22;;;;;;;5.84;53.86;100315.44;3388942;29;20429;-72
2021/10/26 04:04:08;;;;;;;;;;;;;;;5.95;53.41;100314.44;3373670;29;20040;-72
2021/10/26 04:05:57;;;;;;;6.53;2.90;;;;;;;5.88;53.63;100310.69;3381551;29;19946;-72
2021/10/26 04:07:50;;;;;;;4.15;2.42;;;;;;;5.88;53.91;100308.84;3389778;29;20047;-71
2021/10/26 04:09:44;;;;;;;7.43;3.20;;;;;;;5.89;53.64;100317.66;3390002;29;20043;-71
2021/10/26 04:11:27;;;;;;;4.18;2.65;;;;;;;5.86;53.81;100310.00;3388621;29;20511;-72
2021/10/26 04:13:11;;;;;;;9.27;3.53;;;;;;;5.87;53.84;100311.69;3386531;29;20594;-72
2021/10/26 04:14:55;;;;;;;8.65;3.35;;;;;;;5.84;53.95;100317.25;3372632;29;20061;-70
2021/10/26 04:16:36;;;;;;;5.85;3.60;;;;;;;5.85;53.83;100314.47;3396244;29;20507;-70
2021/10/26 04:18:17;;;;;;;5.00;2.97;;;;;;;5.84;53.83;100306.69;3388491;29;20048;-72
2021/10/26 04:19:59;;;;;;;5.40;3.60;;;;;;;5.84;53.97;100306.69;3389441;29;20051;-71
2021/10/26 04:21:43;;;;;;;5.57;2.90;;;;;;;5.84;53.94;100301.41;3375245;29;20140;-71
2021/10/26 04:23:25;;;;;;;10.38;4.60;;;;;;;5.87;53.81;100311.69;3385809;29;20532;-71
2021/10/26 04:25:06;;;;;;;4.47;3.00;;;;;;;5.86;53.83;100305.56;3385845;29;20500;-72
2021/10/26 04:26:47;;;;;;;8.23;2.97;;;;;;;5.87;53.93;100304.56;3385457;29;20146;-71
2021/10/26 04:28:27;;;;;;;5.88;3.08;;;;;;;5.86;54.02;100294.97;3385547;29;20052;-71
2021/10/26 04:30:09;;;;;;;8.43;3.65;;;;;;;5.85;54.00;100292.47;3385308;29;20040;-71
2021/10/26 04:31:50;;;;;;;8.65;3.15;;;;;;;5.84;54.04;100291.63;3385912;29;20044;-71
2021/10/26 04:33:35;;;;;;;6.80;3.60;;;;;;;5.80;53.91;100295.56;3386167;29;20050;-71
2021/10/26 04:35:16;;;;;;;5.40;3.33;;;;;;;5.80;53.98;100289.44;3386368;29;20141;-71
2021/10/26 04:36:56;;;;;;;3.65;2.47;;;;;;;5.82;54.10;100290.13;3388217;29;20048;-71
2021/10/26 04:38:39;;;;;;;5.97;3.47;;;;;;;5.81;53.94;100291.13;3401391;29;20050;-71
2021/10/26 04:40:19;;;;;;;6.18;3.20;;;;;;;5.83;53.96;100303.19;3388130;29;20051;-72
2021/10/26 04:42:01;;;;;;;10.63;3.40;;;;;;;5.82;54.09;100293.59;3398720;29;20075;-72
2021/10/26 04:43:42;;;;;;;6.65;3.40;;;;;;;5.85;53.90;100297.75;3387897;29;20063;-70
2021/10/26 04:45:28;;;;;;;5.20;3.30;;;;;;;5.87;53.84;100293.16;3385348;29;20127;-72
2021/10/26 04:47:08;;;;;;;6.07;3.92;;;;;;;5.87;53.91;100298.44;3385017;29;20143;-71
2021/10/26 04:48:51;;;;;;;7.40;3.55;;;;;;;5.83;53.91;100289.13;3401222;29;20373;-71
2021/10/26 04:50:33;;;;;;;7.00;3.35;;;;;;;5.89;53.87;100296.50;3387999;29;20044;-71
2021/10/26 04:52:13;;;;;;;6.80;3.88;;;;;;;5.88;53.74;100298.28;3385410;29;20059;-71
2021/10/26 04:53:54;;;;;;;5.93;3.70;;;;;;;5.93;53.71;100297.84;3386842;29;20044;-70
2021/10/26 04:55:35;;;;;;;5.07;2.58;;;;;;;5.92;53.68;100290.06;3400908;29;20323;-71
2021/10/26 04:57:16;;;;;;;6.45;3.00;;;;;;;5.92;53.71;100296.19;3387246;29;20097;-72
2021/10/26 04:59:21;;;;;;;5.95;3.00;;;;;;;5.96;53.61;100299.38;3387937;29;20083;-70
2021/10/26 05:01:02;;;;;;;5.57;3.50;;;;;;;5.98;53.67;100286.84;3374935;29;20043;-71
2021/10/26 05:02:44;;;;;;;5.50;2.92;;;;;;;6.00;53.52;100291.00;3375649;29;20092;-72
2021/10/26 05:04:24;;;;;;;10.98;2.80;;;;;;;6.01;53.51;100282.06;3386148;29;20043;-71
2021/10/26 05:06:06;;;;;;;7.05;3.42;;;;;;;6.04;53.39;100287.09;3387424;29;20974;-72
2021/10/26 05:07:46;;;;;;;5.32;3.03;;;;;;;6.05;53.46;100288.75;3384819;29;20095;-70
2021/10/26 05:09:27;;;;;;;6.93;2.85;;;;;;;6.08;53.38;100283.16;3388082;29;20040;-71
2021/10/26 05:11:08;;;;;;;5.90;2.58;;;;;;;6.10;53.31;100294.41;3384955;29;20130;-72
2021/10/26 05:12:49;;;;;;;7.38;3.67;;;;;;;6.10;53.37;100290.94;3385181;29;20540;-72
2021/10/26 05:14:39;;;;;;;6.32;3.20;;;;;;;6.16;53.29;100284.22;3387489;29;20040;-73
2021/10/26 05:16:39;;;;;;;7.45;5.03;;;;;;;6.18;53.07;100285.72;3387286;29;20059;-70
2021/10/26 05:18:41;;;;;;;6.35;3.67;;;;;;;6.19;53.15;100287.38;3387981;29;20048;-72
2021/10/26 05:20:41;;;;;;;4.88;3.85;;;;;;;6.23;52.91;100279.97;3388539;29;20129;-72
2021/10/26 05:22:45;;;;;;;5.28;2.95;;;;;;;6.25;53.04;100296.56;3369870;29;20480;-72
2021/10/26 05:24:46;;;;;;;5.47;2.85;;;;;;;6.28;52.85;100283.84;3388482;29;20508;-73
2021/10/26 05:26:47;;;;;;;7.45;3.92;;;;;;;6.30;52.82;100286.34;3377644;29;20164;-71
2021/10/26 05:28:28;;;;;;;6.60;3.33;;;;;;;6.34;52.62;100287.69;3374016;29;20036;-71
2021/10/26 05:30:10;;;;;;;;;;;;;;;6.52;52.49;100288.50;3382288;29;20039;-72
2021/10/26 05:31:51;;;;;;;5.22;2.42;;;;;;;6.56;52.24;100291.69;3385907;29;19930;-72
2021/10/26 05:33:34;;;;;;;7.40;3.75;;;;;;;6.64;52.19;100285.63;3387558;29;20068;-72
2021/10/26 05:35:15;;;;;;;7.20;4.00;;;;;;;6.75;52.02;100288.00;3388611;29;20044;-72
2021/10/26 05:36:57;;;;;;;7.38;3.05;;;;;;;6.81;51.87;100283.91;3388110;29;21210;-72
2021/10/26 05:38:37;;;;;;;;;;;;;;;6.97;51.61;100289.31;3388456;29;20080;-71
2021/10/26 05:40:18;;;;;;;8.23;3.72;;;;;;;6.97;51.53;100284.84;3388573;29;19938;-72
2021/10/26 05:42:00;;;;;;;10.48;3.53;;;;;;;7.07;51.82;100283.88;3388547;29;20040;-73
2021/10/26 05:43:41;;;;;;;7.45;3.17;;;;;;;7.17;51.53;100296.03;3387283;29;20040;-72
2021/10/26 05:45:21;;;;;;;6.13;2.97;;;;;;;7.27;51.28;100295.94;3386781;29;20127;-73
2021/10/26 05:47:02;;;;;;;8.73;3.47;;;;;;;7.41;51.03;100287.38;3387933;29;20043;-73
2021/10/26 05:48:43;;;;;;;12.40;3.92;;;;;;;7.57;50.72;100285.78;3387860;29;20036;-72
2021/10/26 05:50:24;;;;;;;5.93;2.72;;;;;;;7.71;50.46;100281.69;3374190;29;20051;-73
2021/10/26 05:52:06;;;;;;;8.20;3.67;;;;;;;7.83;50.42;100277.75;3385385;29;20456;-72
2021/10/26 05:53:47;;;;;;;10.50;3.67;;;;;;;7.94;50.33;100292.53;3388165;29;20040;-71
2021/10/26 05:55:29;;;;;;;;;;;;;;;8.12;49.98;100279.94;3387712;29;20066;-71
2021/10/26 05:57:10;;;;;;;8.35;4.65;;;;;;;8.15;49.70;100282.28;3387614;29;20022;-73
2021/10/26 05:58:54;;;;;;;8.23;3.53;;;;;;;8.22;49.57;100275.31;3386108;29;20171;-72
2021/10/26 06:00:34;;;;;;;7.45;3.88;;;;;;;8.34;49.29;100288.25;3387467;29;20055;-73
2021/10/26 06:02:15;;;;;;;8.60;3.35;;;;;;;8.43;49.26;100282.00;3388206;29;20411;-71
2021/10/26 06:03:56;;;;;;;6.95;3.25;;;;;;;8.51;49.05;100282.00;3374143;29;20075;-72
2021/10/26 06:05:38;;;;;;;5.32;3.05;;;;;;;8.61;48.96;100295.94;3382092;29;20058;-72
2021/10/26 06:07:19;;;;;;;7.57;3.03;;;;;;;8.71;48.62;100293.13;3371373;29;20040;-72
2021/10/26 06:09:00;;;;;;;10.45;3.17;;;;;;;8.86;48.32;100282.66;3381711;29;20591;-72
2021/10/26 06:10:44;;;;;;;6.70;3.05;;;;;;;9.03;47.93;100284.25;3387761;29;20483;-72
2021/10/26 06:12:29;;;;;;;7.32;3.70;;;;;;;9.17;47.91;100280.06;3386341;29;20492;-72
2021/10/26 06:14:10;;;;;;;4.85;3.72;;;;;;;9.30;47.08;100271.56;3388737;29;20068;-71
2021/10/26 06:15:53;;;;;;;5.72;3.22;;;;;;;9.39;46.97;100268.66;3387644;29;20063;-73
2021/10/26 06:17:34;;;;;;;10.00;3.92;;;;;;;9.46;47.04;100274.16;3383027;29;20109;-72
2021/10/26 06:19:15;;;;;;;5.50;3.05;;;;;;;9.60;46.75;100276.09;3377765;29;20044;-72
2021/10/26 06:20:57;;;;;;;5.50;3.00;;;;;;;9.73;46.30;100274.66;3384343;29;20080;-73
2021/10/26 06:22:37;;;;;;;6.03;3.23;;;;;;;9.89;45.96;100273.78;3350983;29;20059;-73
2021/10/26 06:24:19;;;;;;;6.95;2.97;;;;;;;10.15;45.72;100268.94;3370712;29;20814;-74
2021/10/26 06:26:00;;;;;;;5.90;3.00;;;;;;;10.46;45.26;100271.56;3384114;29;20048;-73
2021/10/26 06:28:14;;;;;;;8.73;3.97;;;;;;;10.84;44.49;100274.22;3394280;29;20131;-71
2021/10/26 06:29:59;;;;;;;;;;;;;;;11.20;44.73;100278.00;3399793;29;20047;-73
2021/10/26 06:31:39;;;;;;;7.93;3.22;;;;;;;11.33;43.79;100270.16;3389019;29;19922;-71
2021/10/26 06:33:20;;;;;;;5.63;3.80;;;;;;;11.54;43.33;100272.09;3386203;29;20055;-72
2021/10/26 06:35:05;;;;;;;8.25;3.35;;;;;;;11.74;42.83;100270.47;3387516;29;20055;-72
2021/10/26 06:36:46;;;;;;;4.55;3.40;;;;;;;11.90;42.41;100264.13;3386954;29;20566;-72
2021/10/26 06:38:27;;;;;;;7.35;3.60;;;;;;;12.17;42.08;100259.88;3387939;29;20048;-73
2021/10/26 06:40:11;;;;;;;9.75;4.43;;;;;;;12.40;41.46;100256.19;3386520;29;20074;-73
2021/10/26 06:41:59;;;;;;;8.35;3.88;;;;;;;12.58;41.22;100256.53;3385651;29;20052;-73
2021/10/26 06:43:59;;;;;;;8.75;3.42;;;;;;;12.72;40.75;100261.97;3388258;29;20139;-73
2021/10/26 06:45:54;;;;;;;6.78;3.85;;;;;;;12.71;40.57;100257.66;3387048;29;20040;-74
2021/10/26 06:47:54;;;;;;;7.15;3.55;;;;;;;12.65;40.54;100268.13;3387429;29;20096;-72
2021/10/26 06:49:53;;;;;;;6.13;3.72;;;;;;;12.68;40.57;100260.75;3387616;29;20044;-74
2021/10/26 06:51:52;;;;;;;10.38;3.80;;;;;;;12.72;40.39;100262.81;3387412;29;20044;-73
2021/10/26 06:53:51;;;;;;;12.45;3.65;;;;;;;12.73;40.27;100264.47;3382115;29;20055;-72
2021/10/26 06:56:09;;;;;;;6.80;3.55;;;;;;;12.86;40.03;100255.72;3375184;29;20080;-72
2021/10/26 06:58:08;;;;;;;9.73;5.25;;;;;;;12.95;39.86;100257.22;3379051;29;20143;-74
2021/10/26 07:00:09;;;;;;;6.57;3.38;;;;;;;13.06;39.60;100250.47;3388808;29;20116;-73
2021/10/26 07:02:08;;;;;;;6.82;3.60;;;;;;;13.17;39.48;100243.78;3387338;29;20137;-72
2021/10/26 07:04:09;;;;;;;5.68;3.60;;;;;;;13.25;38.91;100246.28;3385975;29;20043;-71
2021/10/26 07:05:58;;;;;;;5.22;3.72;;;;;;;13.35;38.95;100244.09;3398765;29;20052;-74
2021/10/26 07:08:14;;;;;;;5.82;3.00;;;;;;;13.43;38.95;100238.56;3387129;29;20123;-72
2021/10/26 07:09:55;;;;;;;4.75;3.47;;;;;;;13.46;38.90;100248.03;3388668;29;20107;-73
2021/10/26 07:11:43;;;;;;;6.47;3.35;;;;;;;13.45;38.74;100228.50;3394651;29;20035;-71
2021/10/26 07:13:26;;;;;;;5.90;3.85;;;;;;;13.51;38.80;100241.06;3388969;29;21563;-71
2021/10/26 07:15:09;;;;;;;8.88;3.95;;;;;;;13.57;38.75;100239.44;3387463;29;20036;-72
2021/10/26 07:16:51;;;;;;;9.73;3.85;;;;;;;13.60;38.67;100238.19;3388289;29;20150;-72
2021/10/26 07:18:33;;;;;;;5.38;3.90;;;;;;;13.65;38.58;100241.94;3400383;29;20032;-72
2021/10/26 07:20:15;;;;;;;7.57;4.30;;;;;;;13.70;38.49;100239.47;3389093;29;20183;-72
2021/10/26 07:22:20;;;;;;;11.73;3.70;;;;;;;13.88;38.91;100238.91;3371084;29;20512;-71
2021/10/26 07:24:18;;;;;;;6.05;3.67;;;;;;;14.00;38.14;100239.16;3389031;29;20068;-71
2021/10/26 07:26:07;;;;;;;6.85;3.70;;;;;;;14.09;37.97;100242.44;3389245;29;20052;-72
2021/10/26 07:27:52;;;;;;;5.70;4.13;;;;;;;14.16;37.65;100244.13;3387825;29;20180;-72
2021/10/26 07:29:35;;;;;;;6.70;4.03;;;;;;;14.22;37.28;100231.75;3374329;29;20033;-72
2021/10/26 07:31:18;;;;;;;11.48;3.60;;;;;;;14.34;37.17;100235.47;3382905;29;20068;-72
2021/10/26 07:33:02;;;;;;;11.15;4.55;;;;;;;14.49;37.15;100239.81;3384115;29;20040;-72
2021/10/26 07:34:43;;;;;;;10.82;4.45;;;;;;;14.67;36.99;100234.69;3385630;29;20080;-72
2021/10/26 07:36:44;;;;;;;6.68;3.90;;;;;;;14.81;36.67;100227.41;3388526;29;20036;-73
2021/10/26 07:38:29;;;;;;;8.68;3.70;;;;;;;14.99;36.33;100227.59;3386190;29;20040;-73
2021/10/26 07:40:11;;;;;;;9.18;3.72;;;;;;;15.18;36.25;100231.28;3385090;29;20110;-71
2021/10/26 07:42:15;;;;;;;9.20;4.32;;;;;;;15.40;35.81;100225.63;3387651;29;20350;-73
2021/10/26 07:44:09;;;;;;;7.65;3.72;;;;;;;15.55;35.48;100228.03;3388697;29;20036;-73
2021/10/26 07:46:15;;;;;;;10.48;4.38;;;;;;;15.75;35.47;100222.56;3376244;29;20595;-71
2021/10/26 07:47:55;;;;;;;9.93;4.53;;;;;;;15.88;35.33;100219.84;3384607;29;20040;-72
2021/10/26 07:49:36;;;;;;;10.48;4.60;;;;;;;16.04;35.07;100218.47;3388309;29;20060;-73
2021/10/26 07:51:18;;;;;;;7.38;3.67;;;;;;;16.11;34.96;100224.66;3386742;29;20075;-72
2021/10/26 07:52:59;;;;;;;8.15;4.20;;;;;;;16.18;34.91;100220.03;3384710;29;20044;-73
2021/10/26 07:54:52;;;;;;;7.57;4.35;;;;;;;16.30;35.06;100222.84;3382748;29;20047;-73
2021/10/26 07:59:34;;;;;;;8.75;4.05;;;;;;;16.65;34.62;100212.41;3361578;29;20153;-72
2021/10/26 08:01:15;;;;;;;10.20;4.55;;;;;;;16.90;34.47;100209.69;3376109;29;20051;-73
2021/10/26 08:03:18;;;;;;;9.10;4.63;;;;;;;17.33;33.47;100211.50;3372008;29;20139;-71
2021/10/26 08:05:11;;;;;;;7.13;4.32;;;;;;;17.60;32.81;100205.75;3380497;29;20048;-72
2021/10/26 08:06:54;;;;;;;11.60;5.43;;;;;;;17.75;32.54;100202.66;3383260;29;20048;-71
2021/10/26 08:08:35;;;;;;;16.17;5.35;;;;;;;17.82;32.16;100206.94;3384914;29;20140;-71
2021/10/26 08:10:16;;;;;;;13.93;5.22;;;;;;;17.91;32.32;100198.50;3384790;29;20084;-74
2021/10/26 08:11:56;;;;;;;12.17;5.23;;;;;;;17.92;32.31;100192.06;3397046;29;20142;-73
2021/10/26 08:13:39;;;;;;;;;;;;;;;18.16;32.26;100192.94;3390808;29;20040;-71
2021/10/26 08:15:22;;;;;;;9.73;4.65;;;;;;;18.15;31.63;100202.91;3387654;29;19930;-72